Time;durP1;ratioP1;P1;durP2;ratioP2;P2;SDS_P1;SDS_P2;PMS_P1;PMS_P2;Temp;Humidity;BMP_temperature;BMP_pressure;BME280_temperature;BME280_humidity;BME280_pressure;Samples;Min_cycle;Max_cycle;Signal;HPM_P1;HPM_P2
2023/03/04 00:01:50;;;;;;;14.82;2.38;;;7.10;99.90;;;;;;4659991;30;20197;-74
2023/03/04 00:04:16;;;;;;;10.95;2.25;;;7.10;99.90;;;;;;4668798;30;20184;-74
2023/03/04 00:06:42;;;;;;;17.75;2.42;;;7.10;99.90;;;;;;4666308;30;20280;-74
2023/03/04 00:09:08;;;;;;;13.88;2.33;;;7.20;99.90;;;;;;4675748;30;20640;-74
2023/03/04 00:11:35;;;;;;;16.05;2.55;;;7.20;99.90;;;;;;4674449;30;20586;-74
2023/03/04 00:14:01;;;;;;;16.88;2.40;;;7.10;99.90;;;;;;4638822;30;20767;-73
2023/03/04 00:16:27;;;;;;;16.25;2.05;;;7.10;99.90;;;;;;4648263;30;20201;-72
2023/03/04 00:18:56;;;;;;;16.08;2.20;;;7.10;99.90;;;;;;4668971;30;20272;-72
2023/03/04 00:21:23;;;;;;;17.65;3.08;;;7.20;99.90;;;;;;4664764;30;20204;-73
2023/03/04 00:23:49;;;;;;;18.27;2.17;;;7.10;99.90;;;;;;4653932;30;20666;-74
2023/03/04 00:26:15;;;;;;;17.75;2.35;;;7.10;99.90;;;;;;4657683;30;20196;-73
2023/03/04 00:28:42;;;;;;;18.45;2.20;;;7.10;99.90;;;;;;4672589;30;20220;-72
2023/03/04 00:31:09;;;;;;;15.15;2.15;;;7.20;99.90;;;;;;4665926;30;20194;-72
2023/03/04 00:33:35;;;;;;;15.60;2.50;;;7.20;99.90;;;;;;4662338;30;20209;-73
2023/03/04 00:36:01;;;;;;;14.75;2.10;;;7.20;99.90;;;;;;4649992;30;20255;-74
2023/03/04 00:38:27;;;;;;;17.90;2.40;;;7.20;99.90;;;;;;4654677;30;20572;-75
2023/03/04 00:40:53;;;;;;;20.85;1.92;;;7.20;99.90;;;;;;4663480;30;20213;-74
2023/03/04 00:43:19;;;;;;;15.63;2.17;;;7.20;99.90;;;;;;4664815;30;20197;-74
2023/03/04 00:45:45;;;;;;;19.17;2.63;;;7.10;99.90;;;;;;4651036;30;20204;-72
2023/03/04 00:48:11;;;;;;;14.85;2.20;;;7.20;99.90;;;;;;4638591;30;20632;-74
2023/03/04 00:50:37;;;;;;;16.05;2.58;;;7.20;99.90;;;;;;4649769;30;20201;-72
2023/03/04 00:53:04;;;;;;;16.10;2.42;;;7.20;99.90;;;;;;4652127;30;20203;-73
2023/03/04 00:55:31;;;;;;;11.23;2.00;;;7.20;99.90;;;;;;4647050;30;20246;-74
2023/03/04 00:57:57;;;;;;;16.23;2.10;;;7.20;99.90;;;;;;4648116;30;20280;-73
2023/03/04 01:00:23;;;;;;;14.90;2.08;;;7.20;99.90;;;;;;4648729;30;20309;-73
2023/03/04 01:02:49;;;;;;;18.10;2.13;;;7.20;99.90;;;;;;4647194;30;20230;-75
2023/03/04 01:05:15;;;;;;;13.60;1.92;;;7.20;99.90;;;;;;4649617;30;20603;-76
2023/03/04 01:07:41;;;;;;;13.68;2.60;;;7.20;99.90;;;;;;4647301;30;20228;-74
2023/03/04 01:10:09;;;;;;;17.33;2.22;;;7.20;99.90;;;;;;4650931;30;20202;-75
2023/03/04 01:12:35;;;;;;;14.63;2.25;;;7.20;99.90;;;;;;4645501;30;20676;-74
2023/03/04 01:15:01;;;;;;;21.40;2.78;;;7.20;99.90;;;;;;4655095;30;20221;-74
2023/03/04 01:17:27;;;;;;;16.60;2.67;;;7.20;99.90;;;;;;4632621;30;20223;-73
2023/03/04 01:19:53;;;;;;;18.02;3.03;;;7.10;99.90;;;;;;4634972;30;20234;-73
2023/03/04 01:22:19;;;;;;;14.13;2.42;;;7.10;99.90;;;;;;4645139;30;20223;-78
2023/03/04 01:24:46;;;;;;;17.80;2.45;;;7.10;99.90;;;;;;4662994;30;20193;-73
2023/03/04 01:27:12;;;;;;;11.95;2.47;;;7.10;99.90;;;;;;4644719;30;20557;-74
2023/03/04 01:29:38;;;;;;;16.13;1.95;;;7.10;99.90;;;;;;4646122;30;20209;-73
2023/03/04 01:32:04;;;;;;;19.08;2.85;;;7.10;99.90;;;;;;4647605;30;20261;-74
2023/03/04 01:34:30;;;;;;;13.38;2.60;;;7.10;99.90;;;;;;4645295;30;20213;-73
2023/03/04 01:36:56;;;;;;;14.25;2.22;;;7.10;99.90;;;;;;4637336;30;20202;-78
2023/03/04 01:39:21;;;;;;;14.95;2.80;;;7.10;99.90;;;;;;4642981;30;20212;-74
2023/03/04 01:41:47;;;;;;;17.30;2.53;;;7.10;99.90;;;;;;4659273;30;20191;-74
2023/03/04 01:44:13;;;;;;;11.10;1.83;;;7.10;99.90;;;;;;4636634;30;20270;-73
2023/03/04 01:46:44;;;;;;;17.42;2.10;;;7.00;99.90;;;;;;4647231;30;20202;-73
2023/03/04 01:49:13;;;;;;;9.80;1.80;;;6.90;99.90;;;;;;4649802;30;20669;-73
2023/03/04 01:51:48;;;;;;;13.30;2.17;;;7.00;99.90;;;;;;4649784;30;20272;-73
2023/03/04 01:54:15;;;;;;;12.88;2.13;;;7.00;99.90;;;;;;4641080;30;20245;-74
2023/03/04 01:56:44;;;;;;;14.85;2.15;;;7.00;99.90;;;;;;4645179;30;20205;-74
2023/03/04 01:59:17;;;;;;;20.13;3.17;;;6.90;99.90;;;;;;4670029;30;20205;-73
2023/03/04 02:01:46;;;;;;;22.08;3.00;;;6.90;99.90;;;;;;4656682;30;20202;-75
2023/03/04 02:04:12;;;;;;;13.65;2.33;;;6.90;99.90;;;;;;4650534;30;22585;-78
2023/03/04 02:06:39;;;;;;;19.33;2.40;;;6.90;99.90;;;;;;4638699;30;20223;-73
2023/03/04 02:09:06;;;;;;;16.45;2.30;;;6.90;99.90;;;;;;4660153;30;20249;-73
2023/03/04 02:11:33;;;;;;;22.38;3.05;;;6.80;99.90;;;;;;4653225;30;20217;-72
2023/03/04 02:13:59;;;;;;;15.38;2.70;;;6.90;99.90;;;;;;4658977;30;20292;-78
2023/03/04 02:16:25;;;;;;;12.57;2.08;;;6.90;99.90;;;;;;4638751;30;20269;-74
2023/03/04 02:18:51;;;;;;;16.48;2.95;;;6.90;99.90;;;;;;4654931;30;20280;-73
2023/03/04 02:21:26;;;;;;;12.57;2.10;;;6.90;99.90;;;;;;4649568;30;20290;-73
2023/03/04 02:24:01;;;;;;;18.20;2.40;;;6.90;99.90;;;;;;4652826;30;20193;-73
2023/03/04 02:26:29;;;;;;;12.35;2.22;;;6.90;99.90;;;;;;4639778;30;20189;-73
2023/03/04 02:28:58;;;;;;;10.35;1.92;;;6.90;99.90;;;;;;4660788;30;20225;-73
2023/03/04 02:31:26;;;;;;;12.57;2.03;;;6.80;99.90;;;;;;4654344;30;20197;-74
2023/03/04 02:33:53;;;;;;;17.67;2.50;;;6.80;99.90;;;;;;4652457;30;20249;-75
2023/03/04 02:36:19;;;;;;;15.98;2.55;;;6.80;99.90;;;;;;4649720;30;20205;-74
2023/03/04 02:38:45;;;;;;;15.98;2.53;;;6.80;99.90;;;;;;4634492;30;20209;-74
2023/03/04 02:41:19;;;;;;;14.30;2.42;;;6.80;99.90;;;;;;4647763;30;20206;-73
2023/03/04 02:43:46;;;;;;;15.73;2.22;;;6.80;99.90;;;;;;4640206;30;20256;-74
2023/03/04 02:46:12;;;;;;;16.67;2.47;;;6.90;99.90;;;;;;4651325;30;20198;-73
2023/03/04 02:48:38;;;;;;;10.52;1.90;;;6.90;99.90;;;;;;4643120;30;20285;-77
2023/03/04 02:51:04;;;;;;;10.90;1.95;;;6.90;99.90;;;;;;4641851;30;20202;-73
2023/03/04 02:53:31;;;;;;;15.20;2.00;;;6.90;99.90;;;;;;4648730;30;20560;-75
2023/03/04 02:55:58;;;;;;;12.18;2.10;;;6.90;99.90;;;;;;4647858;30;20241;-75
2023/03/04 02:58:25;;;;;;;12.55;2.33;;;6.90;99.90;;;;;;4648184;30;20197;-74
2023/03/04 03:00:51;;;;;;;13.25;1.70;;;6.90;99.90;;;;;;4663671;30;20193;-74
2023/03/04 03:03:17;;;;;;;17.13;2.17;;;6.90;99.90;;;;;;4661069;30;20205;-74
2023/03/04 03:05:43;;;;;;;13.90;2.53;;;6.90;99.90;;;;;;4649144;30;20575;-73
2023/03/04 03:08:10;;;;;;;11.65;1.98;;;6.90;99.90;;;;;;4652514;30;20741;-74
2023/03/04 03:10:37;;;;;;;19.40;2.13;;;6.90;99.90;;;;;;4659133;30;20205;-74
2023/03/04 03:13:05;;;;;;;14.88;2.38;;;6.90;99.90;;;;;;4655366;30;20247;-74
2023/03/04 03:15:31;;;;;;;15.73;2.47;;;7.00;99.90;;;;;;4651931;30;20293;-74
2023/03/04 03:17:57;;;;;;;15.77;2.08;;;7.00;99.90;;;;;;4650309;30;20210;-74
2023/03/04 03:20:23;;;;;;;13.18;2.05;;;7.00;99.90;;;;;;4646999;30;20198;-78
2023/03/04 03:22:49;;;;;;;11.23;1.67;;;7.00;99.90;;;;;;4641014;30;20198;-75
2023/03/04 03:25:15;;;;;;;14.20;2.10;;;6.90;99.90;;;;;;4666602;30;20285;-74
2023/03/04 03:27:41;;;;;;;10.43;1.70;;;6.90;99.90;;;;;;4650921;30;20233;-77
2023/03/04 03:30:09;;;;;;;14.38;2.03;;;6.90;99.90;;;;;;4644153;30;20206;-74
2023/03/04 03:32:36;;;;;;;7.78;1.88;;;6.90;99.90;;;;;;4647395;30;20387;-74
2023/03/04 03:35:03;;;;;;;11.82;2.00;;;6.90;99.90;;;;;;4647664;30;20251;-76
2023/03/04 03:37:29;;;;;;;15.82;2.17;;;6.90;99.90;;;;;;4652811;30;21514;-74
2023/03/04 03:39:54;;;;;;;17.35;2.28;;;6.90;99.90;;;;;;4653650;30;20649;-74
2023/03/04 03:42:20;;;;;;;13.32;2.13;;;6.90;99.90;;;;;;4633713;30;20201;-76
2023/03/04 03:44:46;;;;;;;11.07;1.80;;;6.90;99.90;;;;;;4664768;30;20232;-74
2023/03/04 03:47:12;;;;;;;16.52;2.13;;;7.00;99.90;;;;;;4656564;30;20206;-74
2023/03/04 03:49:37;;;;;;;13.50;1.98;;;6.90;99.90;;;;;;4649411;30;20724;-74
2023/03/04 03:52:03;;;;;;;14.07;1.77;;;6.90;99.90;;;;;;4645769;30;20198;-76
2023/03/04 03:54:29;;;;;;;21.77;2.08;;;6.90;99.90;;;;;;4666542;30;20274;-74
2023/03/04 03:56:55;;;;;;;8.30;1.65;;;7.00;99.90;;;;;;4676521;30;20644;-75
2023/03/04 03:59:22;;;;;;;11.90;1.67;;;7.00;99.90;;;;;;4637857;30;20598;-74
2023/03/04 04:01:48;;;;;;;15.30;1.98;;;7.00;99.90;;;;;;4665951;30;20269;-75
2023/03/04 04:04:14;;;;;;;14.48;1.83;;;7.00;99.90;;;;;;4665431;30;20201;-75
2023/03/04 04:06:40;;;;;;;20.08;2.03;;;7.00;99.90;;;;;;4664900;30;20583;-76
2023/03/04 04:09:06;;;;;;;12.40;1.85;;;7.00;99.90;;;;;;4642828;30;20227;-75
2023/03/04 04:11:32;;;;;;;15.00;1.77;;;7.00;99.90;;;;;;4658048;30;20224;-74
2023/03/04 04:13:57;;;;;;;19.83;2.03;;;7.00;99.90;;;;;;4664431;30;20205;-75
2023/03/04 04:16:23;;;;;;;14.68;2.13;;;7.00;99.90;;;;;;4664069;30;20332;-74
2023/03/04 04:18:49;;;;;;;14.55;2.08;;;7.00;99.90;;;;;;4659211;30;20208;-73
2023/03/04 04:21:15;;;;;;;12.27;1.83;;;7.00;99.90;;;;;;4663435;30;20233;-73
2023/03/04 04:23:40;;;;;;;18.50;1.92;;;6.90;99.90;;;;;;4665994;30;20205;-74
2023/03/04 04:26:06;;;;;;;14.18;2.20;;;7.00;99.90;;;;;;4664911;30;20557;-76
2023/03/04 04:28:32;;;;;;;16.38;1.70;;;7.00;99.90;;;;;;4670929;30;20251;-74
2023/03/04 04:30:58;;;;;;;15.68;2.17;;;7.00;99.90;;;;;;4651781;30;20648;-74
2023/03/04 04:33:24;;;;;;;16.38;1.85;;;7.00;99.90;;;;;;4643734;30;20208;-74
2023/03/04 04:35:50;;;;;;;12.60;1.60;;;7.00;99.90;;;;;;4673432;30;20284;-74
2023/03/04 04:38:15;;;;;;;12.98;1.90;;;7.00;99.90;;;;;;4654184;30;20686;-74
2023/03/04 04:40:41;;;;;;;11.52;1.73;;;7.00;99.90;;;;;;4662620;30;20201;-73
2023/03/04 04:43:07;;;;;;;11.43;1.65;;;7.00;99.90;;;;;;4654392;30;20202;-73
2023/03/04 04:45:33;;;;;;;13.00;1.98;;;7.10;99.90;;;;;;4664433;30;20194;-75
2023/03/04 04:47:59;;;;;;;12.00;1.67;;;7.10;99.90;;;;;;4664403;30;20220;-74
2023/03/04 04:50:25;;;;;;;11.95;1.73;;;7.10;99.90;;;;;;4647457;30;20655;-74
2023/03/04 04:52:51;;;;;;;12.60;2.03;;;7.00;99.90;;;;;;4665718;30;20280;-73
2023/03/04 04:55:17;;;;;;;13.77;1.65;;;7.00;99.90;;;;;;4670378;30;20632;-73
2023/03/04 04:57:43;;;;;;;11.38;2.10;;;6.90;99.90;;;;;;4649134;30;20620;-73
2023/03/04 05:00:10;;;;;;;9.70;1.77;;;6.90;99.90;;;;;;4669561;30;20198;-74
2023/03/04 05:02:36;;;;;;;17.48;1.80;;;6.90;99.90;;;;;;4650688;30;20252;-73
2023/03/04 05:05:06;;;;;;;17.95;2.20;;;6.90;99.90;;;;;;4678167;30;20281;-72
2023/03/04 05:07:33;;;;;;;12.00;1.65;;;6.90;99.90;;;;;;4667722;30;20271;-74
2023/03/04 05:09:58;;;;;;;13.13;1.63;;;6.90;99.90;;;;;;4682025;30;20272;-73
2023/03/04 05:12:24;;;;;;;13.20;1.80;;;6.90;99.90;;;;;;4647979;30;20320;-73
2023/03/04 05:14:50;;;;;;;15.25;1.92;;;6.80;99.90;;;;;;4647533;30;20210;-74
2023/03/04 05:17:16;;;;;;;14.27;1.65;;;6.90;99.90;;;;;;4664416;30;20201;-73
2023/03/04 05:19:41;;;;;;;11.40;1.70;;;6.90;99.90;;;;;;4651716;30;20209;-73
2023/03/04 05:22:08;;;;;;;17.05;2.05;;;6.90;99.90;;;;;;4666476;30;20567;-74
2023/03/04 05:24:33;;;;;;;13.15;1.77;;;6.90;99.90;;;;;;4663825;30;20228;-72
2023/03/04 05:27:00;;;;;;;8.50;1.50;;;6.90;99.90;;;;;;4652867;30;20569;-73
2023/03/04 05:29:26;;;;;;;11.98;2.22;;;6.90;99.90;;;;;;4670207;30;20256;-73
2023/03/04 05:31:52;;;;;;;10.60;1.88;;;6.90;99.90;;;;;;4666874;30;20237;-78
2023/03/04 05:34:17;;;;;;;11.52;1.80;;;6.90;99.90;;;;;;4660753;30;20195;-73
2023/03/04 05:36:43;;;;;;;14.25;1.70;;;6.90;99.90;;;;;;4661861;30;20736;-73
2023/03/04 05:39:09;;;;;;;12.27;1.63;;;6.80;99.90;;;;;;4666062;30;20694;-74
2023/03/04 05:41:35;;;;;;;12.82;1.90;;;6.80;99.90;;;;;;4676843;30;20575;-72
2023/03/04 05:44:01;;;;;;;10.85;2.08;;;6.80;99.90;;;;;;4655329;30;20719;-72
2023/03/04 05:46:26;;;;;;;16.75;2.17;;;6.80;99.90;;;;;;4649814;30;20221;-73
2023/03/04 05:48:53;;;;;;;12.10;2.03;;;6.80;99.90;;;;;;4651422;30;20540;-75
2023/03/04 05:51:20;;;;;;;14.15;2.22;;;6.80;99.90;;;;;;4667849;30;20252;-73
2023/03/04 05:53:46;;;;;;;12.52;1.98;;;6.80;99.90;;;;;;4671778;30;20201;-73
2023/03/04 05:56:14;;;;;;;14.00;1.90;;;6.80;99.90;;;;;;4683655;30;20236;-76
2023/03/04 05:58:40;;;;;;;17.17;2.08;;;6.80;99.90;;;;;;4667143;30;20201;-72
2023/03/04 06:01:06;;;;;;;17.00;2.40;;;6.80;99.90;;;;;;4665844;30;20232;-77
2023/03/04 06:03:32;;;;;;;15.18;2.10;;;6.90;99.90;;;;;;4653083;30;20193;-73
2023/03/04 06:05:58;;;;;;;24.02;2.25;;;6.80;99.90;;;;;;4664665;30;20648;-74
2023/03/04 06:08:25;;;;;;;8.95;1.70;;;6.90;99.90;;;;;;4672342;30;20227;-73
2023/03/04 06:10:54;;;;;;;16.00;2.38;;;6.80;99.90;;;;;;4668465;30;20193;-74
2023/03/04 06:13:20;;;;;;;13.77;1.85;;;6.90;99.90;;;;;;4652106;30;20201;-74
2023/03/04 06:15:46;;;;;;;13.35;1.75;;;6.90;99.90;;;;;;4664836;30;20248;-74
2023/03/04 06:18:12;;;;;;;12.18;1.77;;;6.90;99.90;;;;;;4650525;30;20212;-76
2023/03/04 06:20:38;;;;;;;10.90;1.38;;;6.90;99.90;;;;;;4649718;30;20227;-75
2023/03/04 06:23:04;;;;;;;11.00;1.85;;;6.90;99.90;;;;;;4650593;30;20833;-74
2023/03/04 06:25:30;;;;;;;7.28;2.00;;;6.90;99.90;;;;;;4661268;30;20228;-74
2023/03/04 06:27:56;;;;;;;5.95;1.30;;;6.90;99.90;;;;;;4651985;30;20217;-74
2023/03/04 06:30:22;;;;;;;6.40;1.67;;;6.80;99.90;;;;;;4681979;30;20200;-73
2023/03/04 06:32:48;;;;;;;7.75;1.73;;;6.80;99.90;;;;;;4672185;30;20202;-73
2023/03/04 06:35:15;;;;;;;8.23;1.40;;;6.70;99.90;;;;;;4655939;30;20255;-73
2023/03/04 06:37:42;;;;;;;11.05;1.70;;;6.70;99.90;;;;;;4668129;30;20241;-72
2023/03/04 06:40:09;;;;;;;8.30;1.42;;;6.70;99.90;;;;;;4657739;30;20251;-73
2023/03/04 06:42:35;;;;;;;11.35;1.77;;;6.70;99.90;;;;;;4673761;30;20185;-74
2023/03/04 06:45:02;;;;;;;9.43;2.28;;;6.80;99.90;;;;;;4656068;30;20543;-74
2023/03/04 06:47:28;;;;;;;13.57;2.10;;;6.80;99.90;;;;;;4666665;30;20236;-75
2023/03/04 06:49:54;;;;;;;12.65;1.77;;;6.80;99.90;;;;;;4658853;30;20214;-74
2023/03/04 06:52:20;;;;;;;14.50;1.70;;;6.80;99.90;;;;;;4659821;30;20499;-78
2023/03/04 06:54:46;;;;;;;10.25;2.35;;;6.80;99.90;;;;;;4656119;30;20274;-74
2023/03/04 06:57:12;;;;;;;12.43;1.55;;;6.80;99.90;;;;;;4653420;30;20634;-74
2023/03/04 06:59:38;;;;;;;18.92;1.95;;;6.80;99.90;;;;;;4656380;30;20205;-74
2023/03/04 07:02:05;;;;;;;12.32;1.73;;;6.80;99.90;;;;;;4682361;30;20212;-73
2023/03/04 07:04:30;;;;;;;13.55;2.15;;;6.80;99.90;;;;;;4670368;30;20297;-72
2023/03/04 07:06:56;;;;;;;11.82;2.00;;;6.80;99.90;;;;;;4647852;30;20840;-76
2023/03/04 07:09:22;;;;;;;12.95;1.67;;;6.80;99.90;;;;;;4658565;30;20229;-73
2023/03/04 07:11:48;;;;;;;10.68;1.60;;;6.80;99.90;;;;;;4666525;30;20220;-74
2023/03/04 07:14:14;;;;;;;21.40;2.35;;;6.80;99.90;;;;;;4631014;30;20212;-73
2023/03/04 07:16:40;;;;;;;21.02;1.88;;;6.80;99.90;;;;;;4666454;30;20209;-74
2023/03/04 07:19:06;;;;;;;10.40;1.77;;;6.80;99.90;;;;;;4656889;30;20738;-74
2023/03/04 07:21:32;;;;;;;10.90;1.80;;;6.90;99.90;;;;;;4669259;30;20197;-73
2023/03/04 07:23:57;;;;;;;7.88;1.80;;;6.90;99.90;;;;;;4664644;30;20225;-74
2023/03/04 07:26:23;;;;;;;12.98;1.70;;;6.90;99.90;;;;;;4659528;30;20205;-74
2023/03/04 07:28:51;;;;;;;6.78;1.42;;;6.90;99.90;;;;;;4666578;30;20236;-72
2023/03/04 07:31:28;;;;;;;7.68;1.60;;;7.00;99.90;;;;;;4665548;30;20209;-73
2023/03/04 07:33:57;;;;;;;8.27;1.30;;;7.00;99.90;;;;;;4664779;30;20201;-74
2023/03/04 07:36:23;;;;;;;7.88;1.90;;;7.00;99.90;;;;;;4665863;30;20244;-73
2023/03/04 07:38:50;;;;;;;7.22;1.65;;;7.00;99.90;;;;;;4661354;30;20201;-73
2023/03/04 07:41:17;;;;;;;16.20;2.20;;;7.10;99.90;;;;;;4663718;30;20610;-75
2023/03/04 07:43:43;;;;;;;14.63;2.20;;;7.10;99.90;;;;;;4673313;30;20223;-72
2023/03/04 07:46:09;;;;;;;9.98;1.88;;;7.10;99.90;;;;;;4668936;30;20237;-73
2023/03/04 07:48:36;;;;;;;17.73;2.88;;;7.20;99.90;;;;;;4648213;30;20229;-72
2023/03/04 07:51:16;;;;;;;18.23;2.88;;;7.20;99.90;;;;;;4644003;30;20217;-73
2023/03/04 07:53:46;;;;;;;22.13;2.80;;;7.10;99.90;;;;;;4657918;30;20201;-77
2023/03/04 07:56:16;;;;;;;17.70;2.67;;;7.20;99.90;;;;;;4658401;30;20265;-73
2023/03/04 07:58:42;;;;;;;23.90;3.25;;;7.10;99.90;;;;;;4667150;30;20471;-75
2023/03/04 08:01:25;;;;;;;22.08;3.08;;;7.10;99.90;;;;;;4666337;30;20181;-72
2023/03/04 08:03:51;;;;;;;15.15;3.38;;;7.00;99.90;;;;;;4667429;30;20193;-79
2023/03/04 08:06:18;;;;;;;23.10;3.30;;;7.00;99.90;;;;;;4652712;30;20232;-75
2023/03/04 08:08:45;;;;;;;30.08;3.70;;;7.00;99.90;;;;;;4655633;30;20287;-73
2023/03/04 08:11:17;;;;;;;26.67;3.38;;;7.00;99.90;;;;;;4653998;30;20205;-75
2023/03/04 08:13:43;;;;;;;27.83;4.22;;;7.10;99.90;;;;;;4653260;30;20193;-73
2023/03/04 08:16:14;;;;;;;28.45;3.72;;;7.10;99.90;;;;;;4664479;30;20205;-73
2023/03/04 08:18:44;;;;;;;27.73;3.50;;;7.10;99.90;;;;;;4672314;30;20207;-74
2023/03/04 08:21:12;;;;;;;30.00;3.28;;;7.10;99.90;;;;;;4667068;30;20203;-74
2023/03/04 08:23:38;;;;;;;24.40;3.08;;;7.20;99.90;;;;;;4664882;30;20291;-73
2023/03/04 08:26:07;;;;;;;32.92;4.47;;;7.20;99.90;;;;;;4665015;30;20193;-73
2023/03/04 08:28:33;;;;;;;22.45;3.90;;;7.20;99.90;;;;;;4668258;30;20548;-78
2023/03/04 08:30:58;;;;;;;24.98;3.90;;;7.30;99.90;;;;;;4669057;30;20219;-73
2023/03/04 08:33:24;;;;;;;19.42;3.40;;;7.20;99.90;;;;;;4653185;30;20656;-76
2023/03/04 08:35:50;;;;;;;23.88;3.30;;;7.20;99.90;;;;;;4674334;30;21832;-74
2023/03/04 08:38:16;;;;;;;28.30;3.60;;;7.20;99.90;;;;;;4655938;30;20204;-73
2023/03/04 08:40:41;;;;;;;28.52;3.55;;;7.30;99.90;;;;;;4667254;30;20272;-72
2023/03/04 08:43:07;;;;;;;27.73;3.90;;;7.30;99.90;;;;;;4639649;30;20196;-74
2023/03/04 08:45:33;;;;;;;27.25;3.40;;;7.20;99.90;;;;;;4662129;30;20256;-73
2023/03/04 08:47:59;;;;;;;26.38;3.85;;;7.30;99.90;;;;;;4663403;30;20241;-74
2023/03/04 08:50:26;;;;;;;26.48;3.83;;;7.30;99.90;;;;;;4658857;30;20234;-73
2023/03/04 08:52:52;;;;;;;28.67;4.30;;;7.30;99.90;;;;;;4627490;30;20207;-74
2023/03/04 08:55:19;;;;;;;32.70;4.07;;;7.30;99.90;;;;;;4662967;30;20273;-74
2023/03/04 08:57:44;;;;;;;27.63;3.65;;;7.30;99.90;;;;;;4661749;30;20206;-75
2023/03/04 09:00:11;;;;;;;28.00;3.30;;;7.30;99.90;;;;;;4665380;30;20201;-74
2023/03/04 09:02:37;;;;;;;29.67;3.78;;;7.30;99.90;;;;;;4664563;30;20205;-75
2023/03/04 09:05:03;;;;;;;25.67;3.67;;;7.30;99.90;;;;;;4630469;30;20244;-74
2023/03/04 09:07:29;;;;;;;21.48;2.63;;;7.30;99.90;;;;;;4650768;30;20226;-77
2023/03/04 09:09:55;;;;;;;19.02;3.15;;;7.30;99.90;;;;;;4633042;30;20208;-75
2023/03/04 09:12:21;;;;;;;16.15;2.20;;;7.30;99.90;;;;;;4646918;30;20194;-78
2023/03/04 09:14:46;;;;;;;20.73;2.17;;;7.30;99.90;;;;;;4654853;30;20205;-79
2023/03/04 09:17:12;;;;;;;19.75;2.78;;;7.30;99.90;;;;;;4678298;30;20573;-73
2023/03/04 09:19:38;;;;;;;17.83;2.50;;;7.30;99.90;;;;;;4646958;30;20243;-73
2023/03/04 09:22:04;;;;;;;12.98;2.17;;;7.30;99.90;;;;;;4640852;30;20902;-76
2023/03/04 09:24:29;;;;;;;15.00;2.20;;;7.30;99.90;;;;;;4662094;30;20204;-72
2023/03/04 09:26:55;;;;;;;20.85;2.38;;;7.30;99.90;;;;;;4664753;30;20281;-72
2023/03/04 09:29:21;;;;;;;14.85;2.28;;;7.30;99.90;;;;;;4676549;30;20236;-72
2023/03/04 09:31:47;;;;;;;16.30;2.22;;;7.30;99.90;;;;;;4650972;30;20209;-73
2023/03/04 09:34:13;;;;;;;7.18;1.75;;;7.30;99.90;;;;;;4668806;30;20252;-75
2023/03/04 09:36:39;;;;;;;19.52;2.05;;;7.30;99.90;;;;;;4664334;30;20247;-74
2023/03/04 09:39:05;;;;;;;14.52;1.90;;;7.30;99.90;;;;;;4672476;30;20215;-73
2023/03/04 09:41:42;;;;;;;10.93;2.03;;;7.30;99.90;;;;;;4672508;30;20734;-77
2023/03/04 09:44:42;;;;;;;11.50;1.88;;;7.30;99.90;;;;;;4652730;30;20198;-73
2023/03/04 09:47:16;;;;;;;11.00;1.75;;;7.30;99.90;;;;;;4641925;30;20223;-75
2023/03/04 09:49:53;;;;;;;14.82;1.67;;;7.30;99.90;;;;;;4657227;30;20260;-74
2023/03/04 09:52:27;;;;;;;16.73;2.50;;;7.40;99.90;;;;;;4649441;30;20201;-80
2023/03/04 09:55:09;;;;;;;14.68;1.98;;;7.40;99.90;;;;;;4657766;30;20313;-74
2023/03/04 09:57:53;;;;;;;18.58;2.08;;;7.50;99.90;;;;;;4676681;30;20233;-73
2023/03/04 10:00:18;;;;;;;11.10;1.92;;;7.60;99.90;;;;;;4681787;30;20267;-74
2023/03/04 10:03:10;;;;;;;16.67;1.70;;;7.60;99.90;;;;;;4676250;30;20342;-74
2023/03/04 10:05:55;;;;;;;15.70;2.22;;;7.70;99.90;;;;;;4639762;30;20189;-76
2023/03/04 10:09:01;;;;;;;21.25;2.90;;;7.60;99.90;;;;;;4655839;30;20221;-73
2023/03/04 10:11:29;;;;;;;22.25;2.97;;;7.60;99.90;;;;;;4667336;30;20202;-73
2023/03/04 10:14:16;;;;;;;28.80;3.30;;;7.50;99.90;;;;;;4668244;30;20228;-81
2023/03/04 10:16:48;;;;;;;22.77;3.28;;;7.50;99.90;;;;;;4660431;30;20730;-74
2023/03/04 10:19:13;;;;;;;24.02;3.35;;;7.50;99.90;;;;;;4663935;30;20643;-75
2023/03/04 10:21:45;;;;;;;29.95;3.38;;;7.50;99.90;;;;;;4666663;30;20268;-74
2023/03/04 10:24:17;;;;;;;25.13;3.60;;;7.50;99.90;;;;;;4663678;30;20240;-74
2023/03/04 10:26:50;;;;;;;14.55;2.67;;;7.50;99.90;;;;;;4666386;30;20245;-75
2023/03/04 10:29:19;;;;;;;23.17;3.00;;;7.50;99.90;;;;;;4662815;30;20221;-74
2023/03/04 10:31:45;;;;;;;25.40;3.38;;;7.60;99.90;;;;;;4685133;30;20284;-73
2023/03/04 10:34:12;;;;;;;24.90;3.17;;;7.50;99.90;;;;;;4666869;30;20303;-75
2023/03/04 10:37:01;;;;;;;16.85;3.00;;;7.60;99.90;;;;;;4658101;30;20569;-76
2023/03/04 10:39:34;;;;;;;27.85;3.85;;;7.60;99.90;;;;;;4679567;30;20197;-73
2023/03/04 10:42:23;;;;;;;22.67;3.13;;;7.60;99.90;;;;;;4654108;30;20279;-74
2023/03/04 10:44:57;;;;;;;22.10;3.05;;;7.60;99.90;;;;;;4655009;30;20244;-73
2023/03/04 10:47:28;;;;;;;17.08;3.28;;;7.60;99.90;;;;;;4657512;30;20193;-78
2023/03/04 10:50:00;;;;;;;20.63;2.55;;;7.60;99.90;;;;;;4650579;30;20783;-75
2023/03/04 10:52:27;;;;;;;18.50;3.28;;;7.60;99.90;;;;;;4671054;30;20193;-73
2023/03/04 10:54:56;;;;;;;19.70;3.13;;;7.60;99.90;;;;;;4665113;30;20276;-73
2023/03/04 10:57:34;;;;;;;24.92;3.33;;;7.60;99.90;;;;;;4665453;30;20647;-73
2023/03/04 11:00:16;;;;;;;21.23;3.15;;;7.60;99.90;;;;;;4658612;30;20272;-73
2023/03/04 11:02:43;;;;;;;19.08;2.83;;;7.70;99.90;;;;;;4667106;30;20198;-73
2023/03/04 11:05:20;;;;;;;23.83;4.00;;;7.70;99.90;;;;;;4659946;30;20643;-73
2023/03/04 11:07:58;;;;;;;22.27;3.20;;;7.70;99.90;;;;;;4676681;30;20662;-74
2023/03/04 11:10:38;;;;;;;23.27;3.25;;;7.70;99.90;;;;;;4666991;30;20209;-73
2023/03/04 11:13:10;;;;;;;19.50;2.72;;;7.60;99.90;;;;;;4668549;30;20212;-73
2023/03/04 11:15:55;;;;;;;17.77;2.75;;;7.60;99.90;;;;;;4674775;30;20237;-73
2023/03/04 11:18:29;;;;;;;19.67;2.72;;;7.60;99.90;;;;;;4680707;30;20210;-74
2023/03/04 11:20:56;;;;;;;21.45;3.10;;;7.60;99.90;;;;;;4684322;30;20761;-73
2023/03/04 11:23:39;;;;;;;23.13;3.35;;;7.70;99.90;;;;;;4681185;30;20199;-73
2023/03/04 11:26:14;;;;;;;22.50;2.78;;;7.80;99.90;;;;;;4633158;30;20201;-74
2023/03/04 11:28:54;;;;;;;23.58;2.40;;;7.90;99.90;;;;;;4662522;30;20216;-74
2023/03/04 11:31:48;;;;;;;18.60;3.53;;;8.00;99.90;;;;;;4666703;30;20265;-73
2023/03/04 11:34:43;;;;;;;18.85;2.90;;;8.00;99.90;;;;;;4664871;30;20205;-72
2023/03/04 11:37:34;;;;;;;13.68;2.45;;;8.00;99.90;;;;;;4676797;30;20533;-75
2023/03/04 11:40:11;;;;;;;21.25;2.67;;;8.00;99.90;;;;;;4659487;30;20209;-73
2023/03/04 11:43:13;;;;;;;20.58;3.08;;;7.90;99.90;;;;;;4663479;30;20974;-74
2023/03/04 11:45:50;;;;;;;25.00;3.42;;;7.90;99.90;;;;;;4663326;30;20193;-71
2023/03/04 11:48:42;;;;;;;15.80;3.47;;;7.90;99.90;;;;;;4670102;30;20220;-74
2023/03/04 11:51:38;;;;;;;20.00;3.08;;;8.10;99.90;;;;;;4654161;30;20225;-72
2023/03/04 11:54:22;;;;;;;22.83;3.55;;;8.40;99.90;;;;;;4654675;30;20334;-73
2023/03/04 11:57:12;;;;;;;22.85;2.88;;;8.50;99.90;;;;;;4664304;30;20202;-74
2023/03/04 12:00:13;;;;;;;27.65;3.97;;;8.60;99.90;;;;;;4665204;30;20208;-75
2023/03/04 12:03:15;;;;;;;17.25;2.85;;;8.70;99.90;;;;;;4675806;30;20189;-73
2023/03/04 12:06:05;;;;;;;22.88;3.00;;;8.70;99.90;;;;;;4649395;30;20273;-71
2023/03/04 12:08:43;;;;;;;16.02;2.95;;;8.70;99.90;;;;;;4662942;30;20216;-73
2023/03/04 12:11:18;;;;;;;17.17;3.05;;;8.80;99.90;;;;;;4652675;30;20331;-74
2023/03/04 12:14:14;;;;;;;23.30;2.88;;;8.80;99.90;;;;;;4658202;30;20197;-77
2023/03/04 12:17:21;;;;;;;20.70;3.08;;;8.90;99.90;;;;;;4655887;30;20802;-74
2023/03/04 12:20:14;;;;;;;13.85;2.92;;;8.90;99.90;;;;;;4670354;30;20205;-74
2023/03/04 12:22:58;;;;;;;21.38;3.25;;;8.80;99.90;;;;;;4666010;30;21209;-74
2023/03/04 12:25:53;;;;;;;22.20;3.03;;;8.80;99.90;;;;;;4666997;30;20268;-73
2023/03/04 12:28:39;;;;;;;24.52;3.47;;;8.70;99.90;;;;;;4667875;30;20216;-73
2023/03/04 12:31:31;;;;;;;21.65;2.90;;;8.60;99.90;;;;;;4666124;30;20190;-74
2023/03/04 12:34:22;;;;;;;19.58;3.38;;;8.70;99.90;;;;;;4671400;30;20196;-73
2023/03/04 12:37:30;;;;;;;16.65;2.83;;;8.80;99.90;;;;;;4657476;30;20217;-73
2023/03/04 12:40:23;;;;;;;19.73;3.17;;;8.80;99.90;;;;;;4655109;30;20224;-74
2023/03/04 12:43:07;;;;;;;16.45;2.78;;;8.80;99.90;;;;;;4666466;30;20194;-72
2023/03/04 12:46:00;;;;;;;17.63;2.38;;;8.80;99.90;;;;;;4664730;30;20237;-74
2023/03/04 12:48:52;;;;;;;23.25;3.28;;;8.90;99.90;;;;;;4658189;30;20217;-73
2023/03/04 12:51:46;;;;;;;14.82;2.58;;;9.10;99.90;;;;;;4654029;30;20208;-79
2023/03/04 12:54:29;;;;;;;22.73;2.95;;;9.20;99.90;;;;;;4671544;30;20208;-75
2023/03/04 12:56:55;;;;;;;20.67;3.03;;;9.00;99.90;;;;;;4672749;30;20236;-73
2023/03/04 12:59:25;;;;;;;16.95;3.10;;;8.90;99.90;;;;;;4678228;30;20220;-74
2023/03/04 13:01:59;;;;;;;18.27;2.60;;;8.80;99.90;;;;;;4677396;30;20284;-75
2023/03/04 13:04:57;;;;;;;21.73;3.15;;;8.60;99.90;;;;;;4660031;30;20673;-74